createdAt,value
2023-07-03T00:00:28.155Z,17.72
2023-07-03T00:02:58.147Z,17.86
2023-07-03T00:05:27.232Z,17.68
2023-07-03T00:07:55.592Z,17.91
2023-07-03T00:10:23.756Z,17.83
2023-07-03T00:12:52.248Z,18.07
2023-07-03T00:15:23.374Z,18.19
2023-07-03T00:17:51.724Z,17.92
2023-07-03T00:20:21.502Z,17.95
2023-07-03T00:22:54.101Z,18.03
2023-07-03T00:25:22.776Z,17.72
2023-07-03T00:27:51.642Z,17.61
2023-07-03T00:30:22.653Z,17.50
2023-07-03T00:32:51.304Z,17.68
2023-07-03T00:35:21.957Z,17.57
2023-07-03T00:37:52.900Z,17.40
2023-07-03T00:40:21.495Z,17.53
2023-07-03T00:42:54.089Z,17.38
2023-07-03T00:45:22.766Z,17.26
2023-07-03T00:47:51.673Z,17.16
2023-07-03T00:50:22.568Z,17.06
2023-07-03T00:52:55.533Z,17.10
2023-07-03T00:55:24.763Z,17.02
2023-07-03T00:57:53.594Z,17.05
2023-07-03T01:00:23.471Z,17.18
2023-07-03T01:03:00.912Z,17.29
2023-07-03T01:05:36.387Z,17.15
2023-07-03T01:08:04.960Z,17.31
2023-07-03T01:10:34.383Z,17.38
2023-07-03T01:13:07.230Z,17.38
2023-07-03T01:15:39.436Z,17.50
2023-07-03T01:18:10.191Z,17.47
2023-07-03T01:20:46.342Z,17.35
2023-07-03T01:23:30.326Z,17.37
2023-07-03T01:26:00.763Z,17.32
2023-07-03T01:28:30.466Z,17.56
2023-07-03T01:30:59.713Z,17.46
2023-07-03T01:33:33.531Z,17.71
2023-07-03T01:36:02.518Z,17.48
2023-07-03T01:38:31.566Z,17.72
2023-07-03T01:41:03.291Z,17.33
2023-07-03T01:43:33.090Z,17.52
2023-07-03T01:46:01.465Z,17.67
2023-07-03T01:48:33.673Z,17.22
2023-07-03T01:51:02.800Z,17.19
2023-07-03T01:53:34.869Z,17.47
2023-07-03T01:56:12.139Z,17.23
2023-07-03T01:58:45.284Z,17.49
2023-07-03T02:01:20.948Z,17.53
2023-07-03T02:03:55.603Z,17.56
2023-07-03T02:06:28.364Z,17.56
2023-07-03T02:08:57.220Z,17.80
2023-07-03T02:11:30.561Z,17.60
2023-07-03T02:13:58.802Z,17.60
2023-07-03T02:16:30.861Z,17.79
2023-07-03T02:18:59.967Z,17.75
2023-07-03T02:21:29.477Z,17.65
2023-07-03T02:24:00.478Z,17.51
2023-07-03T02:26:30.139Z,17.60
2023-07-03T02:29:01.146Z,17.23
2023-07-03T02:31:29.300Z,17.46
2023-07-03T02:33:57.550Z,17.53
2023-07-03T02:36:30.811Z,17.67
2023-07-03T02:38:59.800Z,17.48
2023-07-03T02:41:29.386Z,17.48
2023-07-03T02:43:59.109Z,17.39
2023-07-03T02:46:28.041Z,17.72
2023-07-03T02:48:57.021Z,17.46
2023-07-03T02:51:25.250Z,17.92
2023-07-03T02:53:53.559Z,17.77
2023-07-03T02:56:21.599Z,17.72
2023-07-03T02:58:51.201Z,17.81
2023-07-03T03:01:22.976Z,17.89
2023-07-03T03:03:51.549Z,17.78
2023-07-03T03:06:21.909Z,17.51
2023-07-03T03:08:52.838Z,17.71
2023-07-03T03:11:21.336Z,17.71
2023-07-03T03:13:51.269Z,17.36
2023-07-03T03:16:19.847Z,17.30
2023-07-03T03:18:48.987Z,17.35
2023-07-03T03:21:17.756Z,17.31
2023-07-03T03:23:45.936Z,17.42
2023-07-03T03:26:14.497Z,17.27
2023-07-03T03:28:42.745Z,17.63
2023-07-03T03:31:12.462Z,17.49
2023-07-03T03:33:41.124Z,17.32
2023-07-03T03:36:09.767Z,17.29
2023-07-03T03:38:38.166Z,17.43
2023-07-03T03:41:06.491Z,17.74
2023-07-03T03:43:34.674Z,17.61
2023-07-03T03:46:04.265Z,17.49
2023-07-03T03:48:34.678Z,17.27
2023-07-03T03:51:03.558Z,16.95
2023-07-03T03:53:32.429Z,17.18
2023-07-03T03:56:01.042Z,17.28
2023-07-03T03:58:29.204Z,17.11
2023-07-03T04:00:57.693Z,17.55
2023-07-03T04:03:25.808Z,17.48
2023-07-03T04:05:58.208Z,17.09
2023-07-03T04:08:26.378Z,17.45
2023-07-03T04:10:54.774Z,17.56
2023-07-03T04:13:23.339Z,17.71
2023-07-03T04:16:02.267Z,17.60
2023-07-03T04:18:32.426Z,17.40
2023-07-03T04:21:02.461Z,17.64
2023-07-03T04:23:31.003Z,17.48
2023-07-03T04:26:00.283Z,17.51
2023-07-03T04:28:28.388Z,17.47
2023-07-03T04:30:56.618Z,17.79
2023-07-03T04:33:24.870Z,17.62
2023-07-03T04:35:53.609Z,17.53
2023-07-03T04:38:25.472Z,17.30
2023-07-03T04:40:54.814Z,17.27
2023-07-03T04:43:26.126Z,17.52
2023-07-03T04:45:57.551Z,17.48
2023-07-03T04:48:26.115Z,17.15
2023-07-03T04:50:54.392Z,17.18
2023-07-03T04:53:24.526Z,17.53
2023-07-03T04:55:53.451Z,17.28
2023-07-03T04:58:22.761Z,17.19
2023-07-03T05:00:51.137Z,17.45
2023-07-03T05:03:19.436Z,17.17
2023-07-03T05:05:48.054Z,17.48
2023-07-03T05:08:16.654Z,17.30
2023-07-03T05:10:46.515Z,17.35
2023-07-03T05:13:14.689Z,17.39
2023-07-03T05:15:42.870Z,17.31
2023-07-03T05:18:11.004Z,17.36
2023-07-03T05:20:39.168Z,17.43
2023-07-03T05:23:07.775Z,17.48
2023-07-03T05:25:36.298Z,17.54
2023-07-03T05:28:06.105Z,17.13
2023-07-03T05:30:34.368Z,17.45
2023-07-03T05:33:03.304Z,17.41
2023-07-03T05:35:31.487Z,17.66
2023-07-03T05:38:01.434Z,17.65
2023-07-03T05:40:30.121Z,17.65
2023-07-03T05:42:58.585Z,17.77
2023-07-03T05:45:28.840Z,17.89
2023-07-03T05:47:56.997Z,17.62
2023-07-03T05:50:25.144Z,17.79
2023-07-03T05:52:53.433Z,17.74
2023-07-03T05:55:21.890Z,17.65
2023-07-03T05:57:53.591Z,17.55
2023-07-03T06:00:23.247Z,17.62
2023-07-03T06:02:55.165Z,17.33
2023-07-03T06:05:23.477Z,17.26
2023-07-03T06:07:54.574Z,17.14
2023-07-03T06:10:24.818Z,17.36
2023-07-03T06:12:53.094Z,17.35
2023-07-03T06:15:24.482Z,16.87
2023-07-03T06:17:54.175Z,17.29
2023-07-03T06:20:26.101Z,17.18
2023-07-03T06:22:54.221Z,17.35
2023-07-03T06:25:25.741Z,17.35
2023-07-03T06:27:53.889Z,17.63
2023-07-03T06:30:25.056Z,17.46
2023-07-03T06:32:54.880Z,17.57
2023-07-03T06:35:23.307Z,17.72
2023-07-03T06:37:54.615Z,17.78
2023-07-03T06:40:23.287Z,17.84
2023-07-03T06:42:53.441Z,17.50
2023-07-03T06:45:22.339Z,17.54
2023-07-03T06:47:50.601Z,17.38
2023-07-03T06:50:23.079Z,17.53
2023-07-03T06:52:51.511Z,17.41
2023-07-03T06:55:21.672Z,17.25
2023-07-03T06:57:50.252Z,17.29
2023-07-03T07:00:22.014Z,17.84
2023-07-03T07:02:50.591Z,17.92
2023-07-03T07:05:22.749Z,17.85
2023-07-03T07:07:51.151Z,17.93
2023-07-03T07:10:19.848Z,17.45
2023-07-03T07:12:47.972Z,17.77
2023-07-03T07:15:16.335Z,17.52
2023-07-03T07:17:51.901Z,17.44
2023-07-03T07:20:22.215Z,17.61
2023-07-03T07:22:51.033Z,17.38
2023-07-03T07:25:19.224Z,17.12
2023-07-03T07:27:47.760Z,17.16
2023-07-03T07:30:16.593Z,17.44
2023-07-03T07:32:45.593Z,17.32
2023-07-03T07:35:14.183Z,17.59
2023-07-03T07:37:44.072Z,17.27
2023-07-03T07:40:13.190Z,17.08
2023-07-03T07:42:41.454Z,17.33
2023-07-03T07:45:10.576Z,17.67
2023-07-03T07:47:39.705Z,17.72
2023-07-03T07:50:09.225Z,17.80
2023-07-03T07:52:37.807Z,17.51
2023-07-03T07:55:09.165Z,17.60
2023-07-03T07:57:37.692Z,17.73
2023-07-03T08:00:06.862Z,17.82
2023-07-03T08:02:35.200Z,17.71
2023-07-03T08:05:03.546Z,17.97
2023-07-03T08:07:31.740Z,18.08
2023-07-03T08:09:59.935Z,18.21
2023-07-03T08:12:29.517Z,17.93
2023-07-03T08:14:57.795Z,18.26
2023-07-03T08:17:26.203Z,17.66
2023-07-03T08:19:54.485Z,18.20
2023-07-03T08:22:22.592Z,18.29
2023-07-03T08:24:50.754Z,18.23
2023-07-03T08:27:19.358Z,18.46
2023-07-03T08:29:54.184Z,18.60
2023-07-03T08:32:24.478Z,18.54
2023-07-03T08:37:23.717Z,18.51
2023-07-03T08:39:52.055Z,18.06
2023-07-03T08:42:26.114Z,18.08
2023-07-03T08:44:56.404Z,17.91
2023-07-03T08:47:28.579Z,18.04
2023-07-03T08:49:59.259Z,18.41
2023-07-03T08:52:37.959Z,18.48
2023-07-03T08:55:09.287Z,17.87
2023-07-03T08:57:39.740Z,18.23
2023-07-03T09:00:12.716Z,18.19
2023-07-03T09:02:46.400Z,17.86
2023-07-03T09:05:30.931Z,18.02
2023-07-03T09:08:03.926Z,18.35
2023-07-03T09:10:37.877Z,18.11
2023-07-03T09:13:11.454Z,18.01
2023-07-03T09:15:51.663Z,18.30
2023-07-03T09:18:25.420Z,18.05
2023-07-03T09:20:54.627Z,18.34
2023-07-03T09:23:26.301Z,18.39
2023-07-03T09:26:04.817Z,18.40
2023-07-03T09:28:39.328Z,18.31
2023-07-03T09:31:09.529Z,18.14
2023-07-03T09:33:37.895Z,18.34
2023-07-03T09:36:21.501Z,18.55
2023-07-03T09:38:49.982Z,18.71
2023-07-03T09:41:27.298Z,18.56
2023-07-03T09:43:56.678Z,18.42
2023-07-03T09:46:26.283Z,18.47
2023-07-03T09:48:54.846Z,18.68
2023-07-03T09:51:29.034Z,18.70
2023-07-03T09:54:00.237Z,18.81
2023-07-03T09:56:33.079Z,18.58
2023-07-03T09:59:02.896Z,18.55
2023-07-03T10:06:42.018Z,18.83
2023-07-03T10:11:56.301Z,18.84
2023-07-03T10:14:29.592Z,18.95
2023-07-03T10:17:02.096Z,19.09
2023-07-03T10:19:30.758Z,19.19
2023-07-03T10:22:00.120Z,19.41
2023-07-03T10:24:28.328Z,19.21
2023-07-03T10:27:01.056Z,18.86
2023-07-03T10:29:34.943Z,18.92
2023-07-03T10:32:09.180Z,18.86
2023-07-03T10:34:44.888Z,18.82
2023-07-03T10:37:16.198Z,18.84
2023-07-03T10:39:51.189Z,18.75
2023-07-03T10:42:24.272Z,18.85
2023-07-03T10:44:58.489Z,18.68
2023-07-03T10:47:35.219Z,18.60
2023-07-03T10:50:04.951Z,18.81
2023-07-03T10:52:38.464Z,18.89
2023-07-03T10:55:16.164Z,19.12
2023-07-03T10:57:54.532Z,19.28
2023-07-03T11:00:29.855Z,19.23
2023-07-03T11:03:14.878Z,19.27
2023-07-03T11:05:46.784Z,19.28
2023-07-03T11:08:23.415Z,19.33
2023-07-03T11:11:02.571Z,19.32
2023-07-03T11:13:50.426Z,18.95
2023-07-03T11:16:23.882Z,19.12
2023-07-03T11:24:20.661Z,19.35
2023-07-03T11:29:29.476Z,19.42
2023-07-03T11:31:59.285Z,19.55
2023-07-03T11:40:36.210Z,19.21
2023-07-03T11:46:23.500Z,19.25
2023-07-03T11:49:00.259Z,19.57
2023-07-03T11:51:47.951Z,19.37
2023-07-03T11:54:24.732Z,19.99
2023-07-03T11:57:08.875Z,20.22
2023-07-03T11:59:40.146Z,20.23
2023-07-03T12:02:45.067Z,20.21
2023-07-03T12:05:13.954Z,20.16
2023-07-03T12:08:00.313Z,19.70
2023-07-03T12:10:59.225Z,19.83
2023-07-03T12:13:46.644Z,19.76
2023-07-03T12:16:17.803Z,19.58
2023-07-03T12:18:46.271Z,19.61
2023-07-03T12:21:14.682Z,19.51
2023-07-03T12:23:49.697Z,19.38
2023-07-03T12:26:19.080Z,19.47
2023-07-03T12:28:48.158Z,19.31
2023-07-03T12:31:23.232Z,19.26
2023-07-03T12:33:54.403Z,19.53
2023-07-03T12:36:24.940Z,19.31
2023-07-03T12:38:55.695Z,18.93
2023-07-03T12:41:29.275Z,19.04
2023-07-03T12:46:31.849Z,19.31
2023-07-03T12:49:12.943Z,19.18
2023-07-03T12:51:44.232Z,19.29
2023-07-03T12:54:15.592Z,19.79
2023-07-03T12:56:45.405Z,19.68
2023-07-03T12:59:18.021Z,19.50
2023-07-03T13:01:51.016Z,19.91
2023-07-03T13:04:29.336Z,18.99
2023-07-03T13:06:58.313Z,18.05
2023-07-03T13:09:31.178Z,18.31
2023-07-03T13:11:59.932Z,18.06
2023-07-03T13:14:30.090Z,17.95
2023-07-03T13:17:02.235Z,18.57
2023-07-03T13:19:34.712Z,18.54
2023-07-03T13:22:06.040Z,18.57
2023-07-03T13:24:43.903Z,18.87
2023-07-03T13:27:21.566Z,18.82
2023-07-03T13:29:59.015Z,18.99
2023-07-03T13:32:27.603Z,19.17
2023-07-03T13:35:00.622Z,19.14
2023-07-03T13:37:31.096Z,19.50
2023-07-03T13:40:02.621Z,19.86
2023-07-03T13:42:32.114Z,19.77
2023-07-03T13:45:00.505Z,19.59
2023-07-03T13:47:29.610Z,19.57
2023-07-03T13:49:58.750Z,19.51
2023-07-03T13:52:26.984Z,20.13
2023-07-03T13:54:55.183Z,19.84
2023-07-03T13:57:24.889Z,19.96
2023-07-03T13:59:53.189Z,20.56
2023-07-03T14:02:28.891Z,20.55
2023-07-03T14:05:05.776Z,20.21
2023-07-03T14:07:33.900Z,19.75
2023-07-03T14:10:06.379Z,20.10
2023-07-03T14:12:35.886Z,19.97
2023-07-03T14:15:12.835Z,19.90
2023-07-03T14:17:41.207Z,20.32
2023-07-03T14:20:12.237Z,20.03
2023-07-03T14:22:40.838Z,20.14
2023-07-03T14:25:13.670Z,20.37
2023-07-03T14:27:44.297Z,20.53
2023-07-03T14:30:14.283Z,20.16
2023-07-03T14:32:54.883Z,20.35
2023-07-03T14:35:24.696Z,20.67
2023-07-03T14:37:53.553Z,20.76
2023-07-03T14:40:21.986Z,21.10
2023-07-03T14:42:52.341Z,21.30
2023-07-03T14:45:21.040Z,20.80
2023-07-03T14:47:49.240Z,20.29
2023-07-03T14:50:17.748Z,20.34
2023-07-03T14:52:47.527Z,20.31
2023-07-03T14:55:18.109Z,20.73
2023-07-03T14:57:48.254Z,20.65
2023-07-03T15:00:18.941Z,20.91
2023-07-03T15:02:49.817Z,20.84
2023-07-03T15:05:19.730Z,20.69
2023-07-03T15:07:51.201Z,20.60
2023-07-03T15:10:21.340Z,20.62
2023-07-03T15:12:52.784Z,20.72
2023-07-03T15:15:22.755Z,20.47
2023-07-03T15:17:54.724Z,20.74
2023-07-03T15:20:23.251Z,20.88
2023-07-03T15:22:52.606Z,20.59
2023-07-03T15:25:21.380Z,20.65
2023-07-03T15:27:49.498Z,20.64
2023-07-03T15:30:17.884Z,20.77
2023-07-03T15:32:54.048Z,20.58
2023-07-03T15:35:25.311Z,20.44
2023-07-03T15:37:53.723Z,20.55
2023-07-03T15:40:21.917Z,20.46
2023-07-03T15:42:50.383Z,20.52
2023-07-03T15:45:24.456Z,20.47
2023-07-03T15:47:54.076Z,20.47
2023-07-03T15:50:22.515Z,20.31
2023-07-03T15:52:50.656Z,20.60
2023-07-03T15:55:21.709Z,20.50
2023-07-03T15:57:50.213Z,20.34
2023-07-03T16:00:21.777Z,20.09
2023-07-03T16:02:54.394Z,20.44
2023-07-03T16:05:22.609Z,20.11
2023-07-03T16:07:50.699Z,20.21
2023-07-03T16:10:18.957Z,20.27
2023-07-03T16:12:49.952Z,20.37
2023-07-03T16:15:18.060Z,20.49
2023-07-03T16:17:46.511Z,20.34
2023-07-03T16:20:18.336Z,20.37
2023-07-03T16:22:49.598Z,19.92
2023-07-03T16:25:20.807Z,20.36
2023-07-03T16:27:48.992Z,20.56
2023-07-03T16:30:19.706Z,20.51
2023-07-03T16:32:48.409Z,20.70
2023-07-03T16:35:18.085Z,20.59
2023-07-03T16:37:48.936Z,20.38
2023-07-03T16:40:17.686Z,20.30
2023-07-03T16:42:48.640Z,20.18
2023-07-03T16:45:17.436Z,20.26
2023-07-03T16:47:45.744Z,20.19
2023-07-03T16:50:14.330Z,20.00
2023-07-03T16:52:46.241Z,20.45
2023-07-03T16:55:21.446Z,20.58
2023-07-03T16:57:52.738Z,20.74
2023-07-03T17:00:21.153Z,20.73
2023-07-03T17:02:49.440Z,20.14
2023-07-03T17:05:18.196Z,20.18
2023-07-03T17:07:48.885Z,20.02
2023-07-03T17:10:17.001Z,20.27
2023-07-03T17:12:45.315Z,20.02
2023-07-03T17:15:13.577Z,20.38
2023-07-03T17:17:42.023Z,20.23
2023-07-03T17:20:10.905Z,20.22
2023-07-03T17:22:39.161Z,20.27
2023-07-03T17:25:09.779Z,20.11
2023-07-03T17:27:37.923Z,20.09
2023-07-03T17:30:08.572Z,20.05
2023-07-03T17:32:37.539Z,19.95
2023-07-03T17:35:06.128Z,19.66
2023-07-03T17:37:34.341Z,19.61
2023-07-03T17:40:05.379Z,19.88
2023-07-03T17:42:35.170Z,19.77
2023-07-03T17:45:03.401Z,19.53
2023-07-03T17:47:31.960Z,19.98
2023-07-03T17:50:00.227Z,20.11
2023-07-03T17:52:28.387Z,19.91
2023-07-03T17:54:56.453Z,19.50
2023-07-03T17:57:24.900Z,19.66
2023-07-03T17:59:54.545Z,19.38
2023-07-03T18:02:23.106Z,19.34
2023-07-03T18:04:51.480Z,19.37
2023-07-03T18:07:20.546Z,19.48
2023-07-03T18:09:49.860Z,19.40
2023-07-03T18:12:19.655Z,19.56
2023-07-03T18:14:47.792Z,19.68
2023-07-03T18:17:19.227Z,19.37
2023-07-03T18:19:47.666Z,19.18
2023-07-03T18:22:15.908Z,19.55
2023-07-03T18:24:44.352Z,19.34
2023-07-03T18:27:12.787Z,19.76
2023-07-03T18:29:41.021Z,19.01
2023-07-03T18:32:11.344Z,19.38
2023-07-03T18:34:41.709Z,19.18
2023-07-03T18:37:09.914Z,19.07
2023-07-03T18:39:38.584Z,19.15
2023-07-03T18:42:07.966Z,19.28
2023-07-03T18:44:36.587Z,18.90
2023-07-03T18:47:06.169Z,19.38
2023-07-03T18:49:34.644Z,19.59
2023-07-03T18:52:04.504Z,19.37
2023-07-03T18:54:32.696Z,19.11
2023-07-03T18:57:01.401Z,19.05
2023-07-03T18:59:29.860Z,19.09
2023-07-03T19:01:58.318Z,19.14
2023-07-03T19:04:26.840Z,19.04
2023-07-03T19:06:55.206Z,19.09
2023-07-03T19:09:25.038Z,19.10
2023-07-03T19:11:54.218Z,19.08
2023-07-03T19:14:22.414Z,18.83
2023-07-03T19:16:51.728Z,19.18
2023-07-03T19:19:22.975Z,19.18
2023-07-03T19:21:51.089Z,18.63
2023-07-03T19:24:19.510Z,18.90
2023-07-03T19:26:50.532Z,18.94
2023-07-03T19:29:19.089Z,19.09
2023-07-03T19:31:47.570Z,18.99
2023-07-03T19:34:15.824Z,19.33
2023-07-03T19:36:44.000Z,19.22
2023-07-03T19:39:12.627Z,19.17
2023-07-03T19:41:41.393Z,19.20
2023-07-03T19:44:10.962Z,18.75
2023-07-03T19:46:39.635Z,18.76
2023-07-03T19:49:08.163Z,18.64
2023-07-03T19:51:38.309Z,18.89
2023-07-03T19:54:07.204Z,19.09
2023-07-03T19:56:35.533Z,18.96
2023-07-03T19:59:03.674Z,18.92
2023-07-03T20:01:33.992Z,18.60
2023-07-03T20:04:02.590Z,18.44
2023-07-03T20:06:30.755Z,18.87
2023-07-03T20:08:59.249Z,18.87
2023-07-03T20:11:29.483Z,18.88
2023-07-03T20:13:57.675Z,18.44
2023-07-03T20:16:26.013Z,18.85
2023-07-03T20:18:56.817Z,18.86
2023-07-03T20:21:25.092Z,18.39
2023-07-03T20:23:57.869Z,18.83
2023-07-03T20:26:27.246Z,18.64
2023-07-03T20:28:55.464Z,18.82
2023-07-03T20:31:26.098Z,18.64
2023-07-03T20:33:56.598Z,18.60
2023-07-03T20:36:24.896Z,18.47
2023-07-03T20:38:53.578Z,18.43
2023-07-03T20:41:22.434Z,18.61
2023-07-03T20:43:54.038Z,18.51
2023-07-03T20:46:22.977Z,18.60
2023-07-03T20:48:55.335Z,18.66
2023-07-03T20:51:28.172Z,18.78
2023-07-03T20:54:04.989Z,18.88
2023-07-03T20:56:38.981Z,18.69
2023-07-03T20:59:08.251Z,18.53
2023-07-03T21:01:38.379Z,18.43
2023-07-03T21:04:09.027Z,18.58
2023-07-03T21:06:40.025Z,18.68
2023-07-03T21:09:08.299Z,18.55
2023-07-03T21:11:40.464Z,18.66
2023-07-03T21:14:09.179Z,18.62
2023-07-03T21:16:38.149Z,18.86
2023-07-03T21:19:09.281Z,18.70
2023-07-03T21:21:40.011Z,18.80
2023-07-03T21:24:10.543Z,18.41
2023-07-03T21:26:39.128Z,18.37
2023-07-03T21:29:07.905Z,18.64
2023-07-03T21:31:38.380Z,18.71
2023-07-03T21:34:09.965Z,18.28
2023-07-03T21:36:39.493Z,18.42
2023-07-03T21:39:07.868Z,18.58
2023-07-03T21:41:42.148Z,18.19
2023-07-03T21:44:16.332Z,18.26
2023-07-03T21:46:45.486Z,18.54
2023-07-03T21:49:18.033Z,18.53
2023-07-03T21:51:50.317Z,18.69
2023-07-03T21:54:20.798Z,18.35
2023-07-03T21:56:49.280Z,18.61
2023-07-03T21:59:17.879Z,18.33
2023-07-03T22:01:51.542Z,18.24
2023-07-03T22:04:22.717Z,18.35
2023-07-03T22:06:53.239Z,18.29
2023-07-03T22:09:32.567Z,18.36
2023-07-03T22:12:07.899Z,18.42
2023-07-03T22:14:37.617Z,18.46
2023-07-03T22:17:06.334Z,18.39
2023-07-03T22:19:34.809Z,18.46
2023-07-03T22:22:06.362Z,18.33
2023-07-03T22:24:34.845Z,18.17
2023-07-03T22:27:03.742Z,18.25
2023-07-03T22:29:32.036Z,18.37
2023-07-03T22:32:02.570Z,18.27
2023-07-03T22:34:33.652Z,18.28
2023-07-03T22:37:03.160Z,18.32
2023-07-03T22:39:31.501Z,18.38
2023-07-03T22:42:00.070Z,18.37
2023-07-03T22:44:28.952Z,18.26
2023-07-03T22:46:57.806Z,18.08
2023-07-03T22:49:26.358Z,18.18
2023-07-03T22:51:54.657Z,18.23
2023-07-03T22:54:24.565Z,18.34
2023-07-03T22:56:53.259Z,18.34
2023-07-03T22:59:24.741Z,18.30
2023-07-03T23:01:54.457Z,18.41
2023-07-03T23:04:23.143Z,18.25
2023-07-03T23:06:51.472Z,18.28
2023-07-03T23:09:22.611Z,18.29
2023-07-03T23:11:52.532Z,18.34
2023-07-03T23:14:20.731Z,18.33
2023-07-03T23:16:49.863Z,18.30
2023-07-03T23:19:20.043Z,18.25
2023-07-03T23:21:55.955Z,18.26
2023-07-03T23:24:26.324Z,18.36
2023-07-03T23:26:56.830Z,18.29
2023-07-03T23:29:24.951Z,18.37
2023-07-03T23:31:54.100Z,18.28
2023-07-03T23:34:23.909Z,17.99
2023-07-03T23:36:52.366Z,18.16
2023-07-03T23:39:21.338Z,18.41
2023-07-03T23:41:51.271Z,18.38
2023-07-03T23:44:20.907Z,18.38
2023-07-03T23:46:51.337Z,18.18
2023-07-03T23:49:20.128Z,18.37
2023-07-03T23:51:50.056Z,18.35
2023-07-03T23:54:18.184Z,18.34
2023-07-03T23:56:47.102Z,18.44
2023-07-03T23:59:15.669Z,18.45
